createdAt,value
2019-03-24T00:00:04.700Z,25.1
2019-03-24T00:00:13.639Z,29.5
2019-03-24T00:00:22.498Z,32.200001
2019-03-24T00:00:31.503Z,34.099998
2019-03-24T00:00:40.312Z,31.299999
2019-03-24T00:00:49.167Z,28.200001
2019-03-24T00:00:58.056Z,32
2019-03-24T00:01:07.854Z,30.299999
2019-03-24T00:01:16.826Z,32.400002
2019-03-24T00:01:25.637Z,33.700001
2019-03-24T00:01:41.284Z,33.299999
2019-03-24T00:01:48.490Z,27.1
2019-03-24T00:01:57.471Z,24.700001
2019-03-24T00:02:06.323Z,24.299999
2019-03-24T00:02:15.150Z,26.5
2019-03-24T00:02:23.955Z,28.6
2019-03-24T00:02:32.769Z,36.599998
2019-03-24T00:02:41.708Z,40
2019-03-24T00:02:50.561Z,40.099998
2019-03-24T00:02:59.435Z,36.599998
2019-03-24T00:03:08.284Z,31.4
2019-03-24T00:03:17.092Z,32.5
2019-03-24T00:03:25.898Z,31.4
2019-03-24T00:03:34.712Z,31.4
2019-03-24T00:03:44.578Z,32.299999
2019-03-24T00:03:53.437Z,29.4
2019-03-24T00:04:02.374Z,34.5
2019-03-24T00:04:11.142Z,29.4
2019-03-24T00:04:19.943Z,30.6
2019-03-24T00:04:28.750Z,25.5
2019-03-24T00:04:37.627Z,25.799999
2019-03-24T00:04:46.435Z,26.5
2019-03-24T00:04:55.236Z,31.299999
2019-03-24T00:05:04.055Z,27.6
2019-03-24T00:05:12.857Z,26.5
2019-03-24T00:05:21.665Z,21.799999
2019-03-24T00:05:31.469Z,22.6
2019-03-24T00:05:40.272Z,22.700001
2019-03-24T00:05:49.070Z,24.200001
2019-03-24T00:05:57.887Z,25.4
2019-03-24T00:06:06.684Z,26.5
2019-03-24T00:06:15.484Z,24.700001
2019-03-24T00:06:24.287Z,21.5
2019-03-24T00:06:33.115Z,23.700001
2019-03-24T00:06:41.918Z,23.299999
2019-03-24T00:06:50.745Z,31.5
2019-03-24T00:06:59.534Z,33.200001
2019-03-24T00:07:09.363Z,32.599998
2019-03-24T00:07:18.155Z,28.700001
2019-03-24T00:07:26.963Z,23.6
2019-03-24T00:07:35.793Z,23.5
2019-03-24T00:07:44.611Z,25.5
2019-03-24T00:07:53.417Z,26.6
2019-03-24T00:08:03.211Z,29.1
2019-03-24T00:08:12.016Z,27
2019-03-24T00:08:20.816Z,24.4
2019-03-24T00:08:30.608Z,22.5
2019-03-24T00:08:40.393Z,19.5
2019-03-24T00:08:49.195Z,22.6
2019-03-24T00:08:58.003Z,22.200001
2019-03-24T00:09:06.807Z,23.5
2019-03-24T00:09:15.618Z,27.200001
2019-03-24T00:09:24.411Z,29.4
2019-03-24T00:09:33.219Z,35.799999
2019-03-24T00:09:42.025Z,33.700001
2019-03-24T00:09:50.833Z,32.5
2019-03-24T00:09:59.640Z,32.900002
2019-03-24T00:10:08.440Z,28.799999
2019-03-24T00:10:17.248Z,29.9
2019-03-24T00:10:26.054Z,26.4
2019-03-24T00:10:34.862Z,27.9
2019-03-24T00:10:43.664Z,27.9
2019-03-24T00:10:52.468Z,25.9
2019-03-24T00:11:01.327Z,27.5
2019-03-24T00:11:10.141Z,28.700001
2019-03-24T00:11:18.964Z,25.5
2019-03-24T00:11:27.771Z,21.6
2019-03-24T00:11:36.624Z,24.1
2019-03-24T00:11:45.433Z,20.4
2019-03-24T00:11:54.240Z,22.700001
2019-03-24T00:12:03.064Z,23.799999
2019-03-24T00:12:11.863Z,28.200001
2019-03-24T00:12:20.662Z,31.200001
2019-03-24T00:12:29.475Z,32.200001
2019-03-24T00:12:38.284Z,27.299999
2019-03-24T00:12:47.094Z,23
2019-03-24T00:12:55.896Z,24.1
2019-03-24T00:13:04.693Z,24
2019-03-24T00:13:13.497Z,26.4
2019-03-24T00:13:24.813Z,28
2019-03-24T00:13:32.202Z,25.4
2019-03-24T00:13:41.049Z,24.6
2019-03-24T00:13:49.862Z,25.700001
2019-03-24T00:13:58.668Z,25.799999
2019-03-24T00:14:07.484Z,26.6
2019-03-24T00:14:16.317Z,27.4
2019-03-24T00:14:25.136Z,27.6
2019-03-24T00:14:33.954Z,27.200001
2019-03-24T00:14:42.762Z,28.6
2019-03-24T00:14:51.578Z,29.299999
2019-03-24T00:15:00.411Z,32.299999
2019-03-24T00:15:09.220Z,32.900002
2019-03-24T00:15:25.951Z,31.200001
2019-03-24T00:15:31.821Z,26.4
2019-03-24T00:15:40.645Z,27.6
2019-03-24T00:15:49.468Z,32.400002
2019-03-24T00:15:58.285Z,36.900002
2019-03-24T00:16:07.116Z,38.5
2019-03-24T00:16:15.921Z,34
2019-03-24T00:16:24.753Z,30.799999
2019-03-24T00:16:33.625Z,24.799999
2019-03-24T00:16:42.431Z,26.6
2019-03-24T00:16:52.238Z,26.799999
2019-03-24T00:17:01.039Z,29.299999
2019-03-24T00:17:09.864Z,30.299999
2019-03-24T00:17:18.689Z,31
2019-03-24T00:17:27.503Z,28.4
2019-03-24T00:17:36.325Z,26.1
2019-03-24T00:17:45.130Z,23.9
2019-03-24T00:17:53.950Z,25.6
2019-03-24T00:18:02.774Z,28.6
2019-03-24T00:18:11.648Z,24.700001
2019-03-24T00:18:20.471Z,26.200001
2019-03-24T00:18:29.282Z,29.9
2019-03-24T00:18:39.076Z,33.299999
2019-03-24T00:18:47.894Z,34.5
2019-03-24T00:18:56.690Z,33.099998
2019-03-24T00:19:05.516Z,36
2019-03-24T00:19:14.316Z,34.599998
2019-03-24T00:19:23.114Z,35.099998
2019-03-24T00:19:31.917Z,28.5
2019-03-24T00:19:40.720Z,27.200001
2019-03-24T00:19:49.540Z,24.299999
2019-03-24T00:19:58.348Z,23.299999
2019-03-24T00:20:07.158Z,20.5
2019-03-24T00:20:16.975Z,26.299999
2019-03-24T00:20:25.829Z,26.5
2019-03-24T00:20:34.666Z,26.9
2019-03-24T00:20:43.470Z,23.4
2019-03-24T00:20:52.277Z,21.200001
2019-03-24T00:21:01.074Z,22.700001
2019-03-24T00:21:09.872Z,23.9
2019-03-24T00:21:18.727Z,27.799999
2019-03-24T00:21:27.535Z,27.200001
2019-03-24T00:21:36.357Z,27.1
2019-03-24T00:21:45.159Z,29
2019-03-24T00:21:53.963Z,27.9
2019-03-24T00:22:02.778Z,26.200001
2019-03-24T00:22:11.603Z,28.1
2019-03-24T00:22:20.411Z,27.5
2019-03-24T00:22:29.225Z,23.9
2019-03-24T00:22:38.033Z,25.299999
2019-03-24T00:22:46.852Z,23.200001
2019-03-24T00:22:55.657Z,25
2019-03-24T00:23:04.466Z,26.299999
2019-03-24T00:23:13.272Z,25.700001
2019-03-24T00:23:22.080Z,26.1
2019-03-24T00:23:30.893Z,32.400002
2019-03-24T00:23:39.699Z,33.099998
2019-03-24T00:23:48.535Z,39.400002
2019-03-24T00:23:57.394Z,36.200001
2019-03-24T00:24:06.215Z,35.599998
2019-03-24T00:24:15.024Z,31.200001
2019-03-24T00:24:23.833Z,25.4
2019-03-24T00:24:32.695Z,24.1
2019-03-24T00:24:41.541Z,24.299999
2019-03-24T00:24:50.385Z,33.200001
2019-03-24T00:24:59.190Z,33.299999
2019-03-24T00:25:08.028Z,31.9
2019-03-24T00:25:17.873Z,28.799999
2019-03-24T00:25:26.677Z,30
2019-03-24T00:25:35.495Z,31.799999
2019-03-24T00:25:44.292Z,30.200001
2019-03-24T00:25:53.090Z,25.5
2019-03-24T00:26:01.894Z,25.4
2019-03-24T00:26:11.732Z,25.1
2019-03-24T00:26:20.544Z,25.299999
2019-03-24T00:26:30.334Z,29
2019-03-24T00:26:39.140Z,28.200001
2019-03-24T00:26:47.942Z,31.1
2019-03-24T00:26:56.742Z,29.9
2019-03-24T00:27:05.604Z,25.6
2019-03-24T00:27:14.434Z,24.700001
2019-03-24T00:27:23.236Z,33.5
2019-03-24T00:27:32.052Z,36.400002
2019-03-24T00:27:40.871Z,35.799999
2019-03-24T00:27:49.691Z,31.4
2019-03-24T00:27:58.491Z,26.799999
2019-03-24T00:28:07.329Z,28.6
2019-03-24T00:28:16.160Z,26.6
2019-03-24T00:28:25.014Z,25.700001
2019-03-24T00:28:33.842Z,23.200001
2019-03-24T00:28:42.640Z,23.299999
2019-03-24T00:28:51.457Z,21.299999
2019-03-24T00:29:00.247Z,21.5
2019-03-24T00:29:09.058Z,28.200001
2019-03-24T00:29:17.897Z,29.700001
2019-03-24T00:29:26.707Z,31.1
2019-03-24T00:29:35.535Z,29.299999
2019-03-24T00:29:44.349Z,22.5
2019-03-24T00:29:53.175Z,21.1
2019-03-24T00:30:01.993Z,22.1
2019-03-24T00:30:10.819Z,21.4
2019-03-24T00:30:19.633Z,22.299999
2019-03-24T00:30:28.437Z,24.4
2019-03-24T00:30:37.246Z,27.700001
2019-03-24T00:30:46.058Z,27.9
2019-03-24T00:30:55.858Z,27.700001
2019-03-24T00:31:04.661Z,26.9
2019-03-24T00:31:13.466Z,29.9
2019-03-24T00:31:22.289Z,26.700001
2019-03-24T00:31:31.106Z,31.5
2019-03-24T00:31:39.913Z,32.900002
2019-03-24T00:31:49.711Z,32.599998
2019-03-24T00:31:58.512Z,33
2019-03-24T00:32:07.430Z,29.799999
2019-03-24T00:32:16.245Z,30.299999
2019-03-24T00:32:25.059Z,29
2019-03-24T00:32:33.875Z,28.200001
2019-03-24T00:32:42.687Z,30
2019-03-24T00:32:51.511Z,31.9
2019-03-24T00:33:00.314Z,30.799999
2019-03-24T00:33:09.158Z,32.700001
2019-03-24T00:33:17.971Z,30.1
2019-03-24T00:33:26.778Z,27.6
2019-03-24T00:33:35.778Z,25.1
2019-03-24T00:33:44.586Z,25.9
2019-03-24T00:33:53.780Z,25.5
2019-03-24T00:34:02.669Z,26.9
2019-03-24T00:34:11.497Z,24.799999
2019-03-24T00:34:20.576Z,24.1
2019-03-24T00:34:29.416Z,24.299999
2019-03-24T00:34:38.245Z,25.5
2019-03-24T00:34:48.262Z,28.6
2019-03-24T00:34:57.007Z,30.700001
2019-03-24T00:35:05.853Z,31.200001
2019-03-24T00:35:14.928Z,32.400002
2019-03-24T00:35:23.727Z,27.799999
2019-03-24T00:35:32.799Z,24
2019-03-24T00:35:41.616Z,27.6
2019-03-24T00:35:50.438Z,28.299999
2019-03-24T00:35:59.324Z,33
2019-03-24T00:36:09.145Z,29.799999
2019-03-24T00:36:18.116Z,29.299999
2019-03-24T00:36:27.334Z,27
2019-03-24T00:36:36.133Z,30
2019-03-24T00:36:45.050Z,28.9
2019-03-24T00:36:53.960Z,30.6
2019-03-24T00:37:02.769Z,27.700001
2019-03-24T00:37:11.915Z,28.799999
2019-03-24T00:37:20.764Z,26.9
2019-03-24T00:37:30.563Z,31.5
2019-03-24T00:37:39.629Z,30.5
2019-03-24T00:37:48.431Z,28.4
2019-03-24T00:37:57.351Z,25.1
2019-03-24T00:38:06.155Z,24.700001
2019-03-24T00:38:14.954Z,26.9
2019-03-24T00:38:23.758Z,29.4
2019-03-24T00:38:32.709Z,26.299999
2019-03-24T00:38:41.563Z,24.6
2019-03-24T00:38:50.504Z,23.1
2019-03-24T00:39:00.458Z,23.1
2019-03-24T00:39:09.257Z,22.299999
2019-03-24T00:39:18.211Z,23.799999
2019-03-24T00:39:27.182Z,24
2019-03-24T00:39:36.000Z,26.1
2019-03-24T00:39:44.881Z,24.299999
2019-03-24T00:39:55.433Z,29.200001
2019-03-24T00:40:05.225Z,24
2019-03-24T00:40:14.043Z,26.1
2019-03-24T00:40:22.853Z,25.1
2019-03-24T00:40:31.851Z,25.799999
2019-03-24T00:40:40.654Z,23
2019-03-24T00:40:49.594Z,28.4
2019-03-24T00:40:58.467Z,30.799999
2019-03-24T00:41:07.285Z,30.6
2019-03-24T00:41:16.295Z,26.9
2019-03-24T00:41:25.099Z,25.4
2019-03-24T00:41:33.913Z,23.9
2019-03-24T00:41:42.923Z,24
2019-03-24T00:41:51.731Z,22.200001
2019-03-24T00:42:00.821Z,23.1
2019-03-24T00:42:09.693Z,24.6
2019-03-24T00:42:18.507Z,26.1
2019-03-24T00:42:27.443Z,24.200001
2019-03-24T00:42:36.359Z,24
2019-03-24T00:42:45.270Z,25.799999
2019-03-24T00:42:54.374Z,28.4
2019-03-24T00:43:03.314Z,32.400002
2019-03-24T00:43:12.267Z,29.700001
2019-03-24T00:43:21.179Z,29.299999
2019-03-24T00:43:29.980Z,27.200001
2019-03-24T00:43:39.000Z,26.9
2019-03-24T00:43:47.788Z,26.9
2019-03-24T00:43:56.625Z,26.4
2019-03-24T00:44:05.493Z,29.200001
2019-03-24T00:44:14.324Z,27.5
2019-03-24T00:44:23.171Z,24.6
2019-03-24T00:44:31.994Z,24.4
2019-03-24T00:44:40.838Z,22.5
2019-03-24T00:44:49.978Z,28.799999
2019-03-24T00:44:58.822Z,27.200001
2019-03-24T00:45:07.745Z,27.1
2019-03-24T00:45:16.863Z,31.9
2019-03-24T00:45:36.401Z,34.799999
2019-03-24T00:45:41.490Z,33.700001
2019-03-24T00:45:50.372Z,29.799999
2019-03-24T00:46:00.277Z,29
2019-03-24T00:46:09.081Z,29.799999
2019-03-24T00:46:18.219Z,28.799999
2019-03-24T00:46:27.592Z,23.6
2019-03-24T00:46:36.492Z,21.799999
2019-03-24T00:46:45.446Z,24.6
2019-03-24T00:46:55.238Z,27.299999
2019-03-24T00:47:04.179Z,27.6
2019-03-24T00:47:13.015Z,28.9
2019-03-24T00:47:21.833Z,25.6
2019-03-24T00:47:31.074Z,29.4
2019-03-24T00:47:39.896Z,26.799999
2019-03-24T00:47:49.816Z,26.9
2019-03-24T00:47:58.836Z,26.799999
2019-03-24T00:48:07.637Z,30.700001
2019-03-24T00:48:16.704Z,35.5
2019-03-24T00:48:25.531Z,36.900002
2019-03-24T00:48:34.401Z,30.700001
2019-03-24T00:48:43.384Z,29.299999
2019-03-24T00:48:52.189Z,23.5
2019-03-24T00:49:01.026Z,26.4
2019-03-24T00:49:10.991Z,31.200001
2019-03-24T00:49:19.816Z,28.700001
2019-03-24T00:49:28.663Z,29
2019-03-24T00:49:37.517Z,24
2019-03-24T00:49:46.355Z,31.700001
2019-03-24T00:49:56.276Z,28.799999
2019-03-24T00:50:05.117Z,28
2019-03-24T00:50:13.922Z,25.1
2019-03-24T00:50:22.752Z,26.4
2019-03-24T00:50:31.620Z,25.4
2019-03-24T00:50:40.466Z,27.6
2019-03-24T00:50:49.292Z,30.9
2019-03-24T00:50:58.126Z,30.5
2019-03-24T00:51:06.970Z,32.900002
2019-03-24T00:51:15.820Z,34.799999
2019-03-24T00:51:24.762Z,31.799999
2019-03-24T00:51:33.567Z,30.1
2019-03-24T00:51:42.395Z,23.4
2019-03-24T00:51:51.192Z,23.299999
2019-03-24T00:52:00.324Z,28
2019-03-24T00:52:10.151Z,32
2019-03-24T00:52:18.963Z,33.799999
2019-03-24T00:52:28.808Z,28.5
2019-03-24T00:52:37.611Z,25.799999
2019-03-24T00:52:46.617Z,24.200001
2019-03-24T00:52:55.450Z,26.799999
2019-03-24T00:53:04.228Z,29.299999
2019-03-24T00:53:13.085Z,31.299999
2019-03-24T00:53:21.895Z,31.200001
2019-03-24T00:53:30.879Z,31.5
2019-03-24T00:53:39.688Z,28.4
2019-03-24T00:53:48.834Z,28.1
2019-03-24T00:53:57.885Z,27.700001
2019-03-24T00:54:07.676Z,32.799999
2019-03-24T00:54:16.736Z,29.200001
2019-03-24T00:54:25.558Z,30.1
2019-03-24T00:54:34.383Z,27.1
2019-03-24T00:54:43.324Z,25.200001
2019-03-24T00:54:52.145Z,24.799999
2019-03-24T00:55:01.055Z,23
2019-03-24T00:55:10.001Z,27.5
2019-03-24T00:55:18.811Z,25.5
2019-03-24T00:55:27.695Z,23.1
2019-03-24T00:55:36.636Z,24.4
2019-03-24T00:55:46.429Z,24.299999
2019-03-24T00:55:55.494Z,27.200001
2019-03-24T00:56:05.300Z,26.1
2019-03-24T00:56:15.191Z,25
2019-03-24T00:56:24.137Z,23.4
2019-03-24T00:56:32.933Z,23.9
2019-03-24T00:56:41.982Z,25.200001
2019-03-24T00:56:50.742Z,27.9
2019-03-24T00:57:00.544Z,28.6
2019-03-24T00:57:09.553Z,29.9
2019-03-24T00:57:18.454Z,31.299999
2019-03-24T00:57:27.433Z,30.9
2019-03-24T00:57:37.660Z,31.799999
2019-03-24T00:57:46.137Z,29.700001
2019-03-24T00:57:55.173Z,35.200001
2019-03-24T00:58:04.161Z,31.1
2019-03-24T00:58:13.980Z,31.5
2019-03-24T00:58:22.963Z,24
2019-03-24T00:58:31.773Z,21.799999
2019-03-24T00:58:40.596Z,25.5
2019-03-24T00:58:49.529Z,25.200001
2019-03-24T00:58:58.354Z,27.5
2019-03-24T00:59:07.272Z,23.4
2019-03-24T00:59:16.111Z,27.6
2019-03-24T00:59:24.911Z,26.4
2019-03-24T00:59:33.837Z,24
2019-03-24T00:59:42.678Z,22.700001
2019-03-24T00:59:51.527Z,24.200001
2019-03-24T01:00:00.543Z,26.700001
2019-03-24T01:00:09.348Z,27
2019-03-24T01:00:18.184Z,24.9
2019-03-24T01:00:27.096Z,25
2019-03-24T01:00:35.894Z,22.299999
2019-03-24T01:00:44.928Z,24.299999
2019-03-24T01:00:53.734Z,23.700001
2019-03-24T01:01:02.543Z,21.1
2019-03-24T01:01:12.760Z,18.700001
2019-03-24T01:01:21.623Z,20.1
2019-03-24T01:01:31.653Z,22.799999
2019-03-24T01:01:40.603Z,23.799999
2019-03-24T01:01:49.407Z,25.200001
2019-03-24T01:01:58.317Z,25.5
2019-03-24T01:02:07.173Z,25.9
2019-03-24T01:02:16.003Z,23.1
2019-03-24T01:02:25.052Z,23
2019-03-24T01:02:33.854Z,22.4
2019-03-24T01:02:43.823Z,23.299999
2019-03-24T01:02:53.619Z,25.299999
2019-03-24T01:03:02.521Z,26.5
2019-03-24T01:03:12.414Z,25.799999
2019-03-24T01:03:21.320Z,26.299999
2019-03-24T01:03:30.330Z,25
2019-03-24T01:03:39.152Z,26.799999
2019-03-24T01:03:48.320Z,26.6
2019-03-24T01:03:57.180Z,26.6
2019-03-24T01:04:06.090Z,24.700001
2019-03-24T01:04:15.228Z,22.700001
2019-03-24T01:04:24.030Z,25.299999
2019-03-24T01:04:33.226Z,22.700001
2019-03-24T01:04:42.058Z,25.6
2019-03-24T01:04:50.928Z,25.1
2019-03-24T01:05:00.024Z,27.5
2019-03-24T01:05:08.832Z,22.700001
2019-03-24T01:05:17.689Z,21.299999
2019-03-24T01:05:26.856Z,21.299999
2019-03-24T01:05:35.655Z,22.1
2019-03-24T01:05:44.775Z,26.9
2019-03-24T01:05:53.798Z,26.1
2019-03-24T01:06:03.600Z,26.5
2019-03-24T01:06:12.636Z,29.1
2019-03-24T01:06:21.441Z,28.299999
2019-03-24T01:06:30.447Z,29.299999
2019-03-24T01:06:39.356Z,27.1
2019-03-24T01:06:48.155Z,28
2019-03-24T01:06:57.090Z,29.6
2019-03-24T01:07:06.078Z,29.9
2019-03-24T01:07:15.006Z,28.1
2019-03-24T01:07:24.157Z,27.4
2019-03-24T01:07:32.956Z,28.700001
2019-03-24T01:07:42.753Z,29.4
2019-03-24T01:07:51.866Z,25.4
2019-03-24T01:08:00.665Z,24.799999
2019-03-24T01:08:09.687Z,26.4
2019-03-24T01:08:18.737Z,25.4
2019-03-24T01:08:27.531Z,25.700001
2019-03-24T01:08:37.731Z,27.4
2019-03-24T01:08:46.553Z,26.5
2019-03-24T01:08:55.451Z,30.299999
2019-03-24T01:09:04.654Z,28.6
2019-03-24T01:09:14.441Z,30.700001
2019-03-24T01:09:24.634Z,30.799999
2019-03-24T01:09:33.708Z,30.299999
2019-03-24T01:09:42.509Z,24
2019-03-24T01:09:51.679Z,23
2019-03-24T01:10:00.620Z,20.700001
2019-03-24T01:10:09.430Z,23.4
2019-03-24T01:10:19.587Z,25.299999
2019-03-24T01:10:30.419Z,28.5
2019-03-24T01:10:39.703Z,24.799999
2019-03-24T01:10:48.732Z,26.700001
2019-03-24T01:10:57.534Z,24.6
2019-03-24T01:11:06.738Z,31.1
2019-03-24T01:11:15.574Z,34.099998
2019-03-24T01:11:24.539Z,28.6
2019-03-24T01:11:33.526Z,29.799999
2019-03-24T01:11:42.320Z,25.299999
2019-03-24T01:11:51.350Z,24.799999
2019-03-24T01:12:00.319Z,22.299999
2019-03-24T01:12:10.228Z,18.799999
2019-03-24T01:12:19.183Z,19.9
2019-03-24T01:12:27.981Z,24.700001
2019-03-24T01:12:36.817Z,25.6
2019-03-24T01:12:45.861Z,24.700001
2019-03-24T01:12:54.676Z,19.299999
2019-03-24T01:13:03.900Z,18.799999
2019-03-24T01:13:12.787Z,17.4
2019-03-24T01:13:21.619Z,22.6
2019-03-24T01:13:30.767Z,26.799999
2019-03-24T01:13:39.763Z,28.9
2019-03-24T01:13:48.637Z,29.1
2019-03-24T01:13:57.825Z,28.5
2019-03-24T01:14:06.626Z,25.9
2019-03-24T01:14:15.595Z,22.9
2019-03-24T01:14:25.534Z,22.700001
2019-03-24T01:14:34.388Z,25.299999
2019-03-24T01:14:43.602Z,27.799999
2019-03-24T01:14:52.470Z,31.299999
2019-03-24T01:15:01.280Z,31.299999
2019-03-24T01:15:10.744Z,33.200001
2019-03-24T01:15:19.610Z,27.5
2019-03-24T01:15:28.579Z,26.5
2019-03-24T01:15:47.274Z,24.299999
2019-03-24T01:15:52.641Z,24.799999
2019-03-24T01:16:01.700Z,27.6
2019-03-24T01:16:10.548Z,27.700001
2019-03-24T01:16:19.714Z,32.799999
2019-03-24T01:16:29.544Z,29
2019-03-24T01:16:38.346Z,24.1
2019-03-24T01:16:47.313Z,24.1
2019-03-24T01:16:56.124Z,27.9
2019-03-24T01:17:05.013Z,26
2019-03-24T01:17:13.917Z,24.200001
2019-03-24T01:17:22.734Z,21.1
2019-03-24T01:17:32.612Z,19.1
2019-03-24T01:17:41.590Z,21
2019-03-24T01:17:50.420Z,21.4
2019-03-24T01:18:00.540Z,22.700001
2019-03-24T01:18:09.346Z,26.200001
2019-03-24T01:18:18.153Z,27.5
2019-03-24T01:18:27.101Z,27.1
2019-03-24T01:18:35.922Z,30.799999
2019-03-24T01:18:45.084Z,25.200001
2019-03-24T01:18:54.124Z,30.4
2019-03-24T01:19:02.928Z,31.299999
2019-03-24T01:19:12.172Z,29.4
2019-03-24T01:19:21.078Z,25
2019-03-24T01:19:29.939Z,26
2019-03-24T01:19:38.989Z,28.6
2019-03-24T01:19:47.789Z,30.9
2019-03-24T01:19:56.792Z,34.200001
2019-03-24T01:20:05.856Z,35.200001
2019-03-24T01:20:14.657Z,32.700001
2019-03-24T01:20:25.635Z,28.9
2019-03-24T01:20:34.439Z,26.5
2019-03-24T01:20:43.237Z,25.700001
2019-03-24T01:20:52.586Z,22.6
2019-03-24T01:21:01.392Z,26.700001
2019-03-24T01:21:11.628Z,26.799999
2019-03-24T01:21:20.575Z,29.5
2019-03-24T01:21:29.378Z,25.200001
2019-03-24T01:21:38.595Z,27.1
2019-03-24T01:21:47.515Z,23.799999
2019-03-24T01:21:56.357Z,23.299999
2019-03-24T01:22:05.387Z,23.200001
2019-03-24T01:22:14.217Z,21.6
2019-03-24T01:22:23.204Z,23.700001
2019-03-24T01:22:32.485Z,25
2019-03-24T01:22:41.281Z,27.4
2019-03-24T01:22:50.464Z,28.200001
2019-03-24T01:22:59.423Z,25.200001
2019-03-24T01:23:08.238Z,25
2019-03-24T01:23:17.053Z,25.1
2019-03-24T01:23:26.199Z,28.6
2019-03-24T01:23:35.031Z,31.4
2019-03-24T01:23:43.987Z,25.1
2019-03-24T01:23:53.254Z,27.4
2019-03-24T01:24:02.190Z,24.5
2019-03-24T01:24:11.104Z,24.799999
2019-03-24T01:24:20.304Z,25.200001
2019-03-24T01:24:29.112Z,27.1
2019-03-24T01:24:38.125Z,26.5
2019-03-24T01:24:47.131Z,27.6
2019-03-24T01:24:55.940Z,25.299999
2019-03-24T01:25:06.100Z,25.1
2019-03-24T01:25:14.906Z,26.799999
2019-03-24T01:25:23.899Z,25.200001
2019-03-24T01:25:33.175Z,23
2019-03-24T01:25:41.984Z,21.4
2019-03-24T01:25:51.095Z,21.200001
2019-03-24T01:26:00.067Z,22
2019-03-24T01:26:08.882Z,22.799999
2019-03-24T01:26:18.047Z,21.299999
2019-03-24T01:26:27.875Z,26.1
2019-03-24T01:26:36.774Z,31.299999
2019-03-24T01:26:45.772Z,32.700001
2019-03-24T01:26:55.563Z,33.5
2019-03-24T01:27:04.753Z,33
2019-03-24T01:27:13.784Z,28.6
2019-03-24T01:27:22.705Z,24.700001
2019-03-24T01:27:31.601Z,20.799999
2019-03-24T01:27:40.425Z,22.799999
2019-03-24T01:27:49.441Z,24.4
2019-03-24T01:27:58.664Z,25.700001
2019-03-24T01:28:07.473Z,31.299999
2019-03-24T01:28:16.393Z,29.299999
2019-03-24T01:28:26.407Z,30.6
2019-03-24T01:28:35.211Z,24.799999
2019-03-24T01:28:44.496Z,22.299999
2019-03-24T01:28:53.400Z,20.799999
2019-03-24T01:29:02.263Z,23.5
2019-03-24T01:29:11.336Z,26.299999
2019-03-24T01:29:20.159Z,27.5
2019-03-24T01:29:29.251Z,27.1
2019-03-24T01:29:38.267Z,27
2019-03-24T01:29:48.128Z,25.1
2019-03-24T01:29:57.114Z,25.4
2019-03-24T01:30:05.924Z,25
2019-03-24T01:30:14.987Z,26.6
2019-03-24T01:30:23.980Z,28.5
2019-03-24T01:30:32.783Z,27.9
2019-03-24T01:30:41.945Z,27.9
2019-03-24T01:30:50.753Z,27.9
2019-03-24T01:30:59.750Z,25.1
2019-03-24T01:31:08.601Z,27.200001
2019-03-24T01:31:17.416Z,26.299999
2019-03-24T01:31:26.611Z,27.5
2019-03-24T01:31:35.468Z,23.700001
2019-03-24T01:31:45.399Z,23.299999
2019-03-24T01:31:54.283Z,21.6
2019-03-24T01:32:03.087Z,22.5
2019-03-24T01:32:11.996Z,21.299999
2019-03-24T01:32:20.923Z,24.5
2019-03-24T01:32:29.720Z,23.6
2019-03-24T01:32:38.724Z,23.299999
2019-03-24T01:32:47.527Z,25.6
2019-03-24T01:32:56.324Z,29.6
2019-03-24T01:33:05.352Z,35.599998
2019-03-24T01:33:14.159Z,33.5
2019-03-24T01:33:23.158Z,33.200001
2019-03-24T01:33:32.096Z,29.200001
2019-03-24T01:33:40.906Z,29.200001
2019-03-24T01:33:49.937Z,22.4
2019-03-24T01:33:59.823Z,25
2019-03-24T01:34:08.865Z,23.9
2019-03-24T01:34:17.775Z,28.4
2019-03-24T01:34:26.594Z,25.700001
2019-03-24T01:34:35.635Z,25.700001
2019-03-24T01:34:44.443Z,21.9
2019-03-24T01:34:53.409Z,20.799999
2019-03-24T01:35:02.235Z,25.9
2019-03-24T01:35:11.040Z,25.5
2019-03-24T01:35:20.134Z,27.200001
2019-03-24T01:35:32.081Z,29.700001
2019-03-24T01:35:41.008Z,30.9
2019-03-24T01:35:50.435Z,28.6
2019-03-24T01:35:59.252Z,23.1
2019-03-24T01:36:08.213Z,21.5
2019-03-24T01:36:17.169Z,20.700001
2019-03-24T01:36:25.973Z,21.9
2019-03-24T01:36:35.220Z,21
2019-03-24T01:36:44.019Z,22.6
2019-03-24T01:36:52.820Z,25.299999
2019-03-24T01:37:01.864Z,24.4
2019-03-24T01:37:10.663Z,25.200001
2019-03-24T01:37:19.750Z,21.4
2019-03-24T01:37:28.652Z,20.6
2019-03-24T01:37:37.465Z,23.700001
2019-03-24T01:37:46.523Z,24.9
2019-03-24T01:37:55.408Z,30.299999
2019-03-24T01:38:04.405Z,28.200001
2019-03-24T01:38:14.386Z,25
2019-03-24T01:38:23.191Z,23.200001
2019-03-24T01:38:32.178Z,23.9
2019-03-24T01:38:40.976Z,28.700001
2019-03-24T01:38:50.036Z,26.200001
2019-03-24T01:38:58.841Z,26.299999
2019-03-24T01:39:07.779Z,19.200001
2019-03-24T01:39:16.698Z,21.6
2019-03-24T01:39:25.598Z,23.299999
2019-03-24T01:39:34.572Z,27
2019-03-24T01:39:43.376Z,27.9
2019-03-24T01:39:53.100Z,26
2019-03-24T01:40:01.958Z,22.299999
2019-03-24T01:40:10.768Z,22.799999
2019-03-24T01:40:19.793Z,20.9
2019-03-24T01:40:28.679Z,24.9
2019-03-24T01:40:37.604Z,23.299999
2019-03-24T01:40:47.577Z,28.9
2019-03-24T01:40:56.381Z,27.4
2019-03-24T01:41:05.298Z,28.200001
2019-03-24T01:41:15.753Z,31.6
2019-03-24T01:41:24.735Z,27.4
2019-03-24T01:41:33.923Z,30.299999
2019-03-24T01:41:42.911Z,34.200001
2019-03-24T01:41:51.744Z,32.700001
2019-03-24T01:42:00.799Z,30
2019-03-24T01:42:09.629Z,27.200001
2019-03-24T01:42:18.509Z,24.4
2019-03-24T01:42:27.426Z,23.4
2019-03-24T01:42:36.246Z,28.700001
2019-03-24T01:42:45.141Z,33.099998
2019-03-24T01:42:54.217Z,31.5
2019-03-24T01:43:04.118Z,31.700001
2019-03-24T01:43:13.104Z,27.1
2019-03-24T01:43:21.922Z,28.799999
2019-03-24T01:43:31.781Z,30.5
2019-03-24T01:43:40.900Z,30.299999
2019-03-24T01:43:49.691Z,27.4
2019-03-24T01:43:58.750Z,27.799999
2019-03-24T01:44:07.567Z,30.799999
2019-03-24T01:44:16.377Z,30
2019-03-24T01:44:25.565Z,26.9
2019-03-24T01:44:34.745Z,25.799999
2019-03-24T01:44:43.620Z,27.1
2019-03-24T01:44:52.911Z,27.799999
2019-03-24T01:45:01.707Z,25
2019-03-24T01:45:10.816Z,26.4
2019-03-24T01:45:20.244Z,25.6
2019-03-24T01:45:29.062Z,27.200001
2019-03-24T01:45:39.280Z,31
2019-03-24T01:45:57.882Z,34.299999
2019-03-24T01:46:02.054Z,35
2019-03-24T01:46:11.142Z,30.299999
2019-03-24T01:46:19.944Z,29.799999
2019-03-24T01:46:29.350Z,30.1
2019-03-24T01:46:38.298Z,32.400002
2019-03-24T01:46:47.144Z,27.4
2019-03-24T01:46:56.111Z,31.1
2019-03-24T01:47:04.912Z,28
2019-03-24T01:47:14.016Z,28.5
2019-03-24T01:47:22.861Z,26.200001
2019-03-24T01:47:31.668Z,28.1
2019-03-24T01:47:40.675Z,27.799999
2019-03-24T01:47:49.464Z,24.299999
2019-03-24T01:47:58.390Z,24.799999
2019-03-24T01:48:07.283Z,28.200001
2019-03-24T01:48:16.105Z,29.700001
2019-03-24T01:48:24.984Z,27.9
2019-03-24T01:48:33.805Z,25.200001
2019-03-24T01:48:42.815Z,21.5
2019-03-24T01:48:51.618Z,28
2019-03-24T01:49:00.650Z,30.5
2019-03-24T01:49:09.595Z,34.5
2019-03-24T01:49:18.403Z,31.200001
2019-03-24T01:49:27.503Z,29.5
2019-03-24T01:49:36.296Z,29.6
2019-03-24T01:49:45.293Z,28.200001
2019-03-24T01:49:54.093Z,22.5
2019-03-24T01:50:02.978Z,26.4
2019-03-24T01:50:11.912Z,23.700001
2019-03-24T01:50:20.727Z,25.1
2019-03-24T01:50:29.783Z,26.6
2019-03-24T01:50:38.588Z,23.200001
2019-03-24T01:50:47.633Z,27.299999
2019-03-24T01:50:56.503Z,24.799999
2019-03-24T01:51:05.368Z,24.9
2019-03-24T01:51:14.342Z,26.4
2019-03-24T01:51:23.143Z,28.4
2019-03-24T01:51:32.250Z,27.5
2019-03-24T01:51:41.046Z,29.6
2019-03-24T01:51:49.994Z,26.200001
2019-03-24T01:51:58.816Z,27.6
2019-03-24T01:52:07.673Z,31.5
2019-03-24T01:52:18.887Z,28
2019-03-24T01:52:27.689Z,25.700001